LFBU/ANG METAR and TAF weather

Enter ICAO airport designator
Station Type Date Time Source
LFBU METAR 2024/04/18 08:30 UTC NOAA

LFBU 180830Z AUTO 36008KT 320V020 9999 SCT020 BKN028 BKN037 09/05 Q1021 TEMPO 4000 -SHRA BKN020TCU


Station Type Date Time Source
LFBU Decoded METAR 2024/04/18 08:30 UTC NOAA

Station name not available
Apr 18, 2024 - 04:30 AM EDT / 2024.04.18 0830 UTC
Wind: from the N (360 degrees) at 9 MPH (8 KT) (direction variable):0
Visibility: greater than 7 mile(s):0
Sky conditions: mostly cloudy
Weather: Towering cumulus clouds observed
Temperature: 48 F (9 C)
Dew Point: 41 F (5 C)
Relative Humidity: 75%
Pressure (altimeter): 30.15 in. Hg (1021 hPa)
ob: LFBU 180830Z AUTO 36008KT 320V020 9999 SCT020 BKN028 BKN037 09/05 Q1021 TEMPO 4000 -SHRA BKN020TCU
cycle: 8

Station Type Date Time Source
LFBU TAF 2024/04/18 08:00 UTC NOAA